GW0587 Weather Reports


Display with metric or nautical units.
time (UTC)temp
F
wind
direction
speed
MPH
gust
MPH
rain 1hr
in
rain 24hr
in
rain mn
in
humidity
%
barometer
mb
20220927203037 78 67 1.0 8.0 0.00 0.00 0.00 30 1020.5
20220927201542 78 344 2.0 9.0 0.00 0.00 0.00 29 1020.6
20220927200114 79 340 3.0 11.0 0.00 0.00 0.00 29 1020.7
20220927194551 79 86 0.0 10.0 0.00 0.00 0.00 29 1020.7
20220927193037 78 30 2.0 11.0 0.00 0.00 0.00 29 1020.8
20220927191534 78 0 1.0 8.0 0.00 0.00 0.00 29 1021.0
20220927190039 78 5 2.0 7.0 0.00 0.00 0.00 30 1021.2
20220927184536 78 32 2.0 4.0 0.00 0.00 0.00 30 1021.3
20220927183035 76 300 2.0 9.0 0.00 0.00 0.00 32 1021.6
20220927181557 77 44 2.0 8.0 0.00 0.00 0.00 31 1022.0
20220927180032 77 55 2.0 6.0 0.00 0.00 0.00 32 1022.1
20220927174535 76 304 3.0 8.0 0.00 0.00 0.00 31 1022.1
20220927173037 76 270 2.0 10.0 0.00 0.00 0.00 30 1022.2
20220927171545 76 226 1.0 13.0 0.00 0.00 0.00 31 1022.4
20220927170047 75 289 1.0 9.0 0.00 0.00 0.00 31 1022.5
20220927164541 75 119 1.0 6.0 0.00 0.00 0.00 31 1022.6
20220927163036 74 0 2.0 10.0 0.00 0.00 0.00 33 1022.6
20220927161533 74 12 1.0 7.0 0.00 0.00 0.00 33 1022.6
20220927160042 73 275 2.0 8.0 0.00 0.00 0.00 33 1022.6
20220927154606 74 266 1.0 4.0 0.00 0.00 0.00 32 1022.5
20220927153053 73 223 1.0 4.0 0.00 0.00 0.00 34 1022.5
20220927151536 72 333 1.0 4.0 0.00 0.00 0.00 34 1022.5
20220927150033 72 97 0.0 2.0 0.00 0.00 0.00 36 1022.5
20220927144541 70 0 0.0 3.0 0.00 0.00 0.00 40 1022.3
20220927143051 68 0 0.0 1.0 0.00 0.00 0.00 44 1022.3
20220927141537 67 288 0.0 2.0 0.00 0.00 0.00 41 1022.1
20220927140035 65 0 0.0 0.0 0.00 0.00 0.00 61 1021.9
20220927134534 64 0 0.0 0.0 0.00 0.00 0.00 66 1021.8
20220927133105 62 0 0.0 0.0 0.00 0.00 0.00 68 1021.8
20220927131542 57 0 0.0 0.0 0.00 0.00 0.00 75 1021.6
20220927130039 53 0 0.0 0.0 0.00 0.00 0.00 82 1021.5
20220927124534 50 0 0.0 0.0 0.00 0.00 0.00 87 1021.4
20220927123036 48 0 0.0 0.0 0.00 0.00 0.00 87 1021.1
20220927121547 48 0 0.0 0.0 0.00 0.00 0.00 87 1021.0
20220927120030 48 0 0.0 0.0 0.00 0.00 0.00 86 1021.0
20220927114604 49 0 0.0 0.0 0.00 0.00 0.00 85 1020.6
20220927113035 49 0 0.0 0.0 0.00 0.00 0.00 85 1020.7
20220927111538 49 0 0.0 0.0 0.00 0.00 0.00 84 1020.5
20220927110036 49 0 0.0 0.0 0.00 0.00 0.00 84 1020.4
20220927104603 49 0 0.0 0.0 0.00 0.00 0.00 83 1020.2
20220927103037 49 0 0.0 0.0 0.00 0.00 0.00 82 1020.1
20220927101533 50 0 0.0 0.0 0.00 0.00 0.00 81 1020.0
20220927100048 50 0 0.0 0.0 0.00 0.00 0.00 80 1019.8
20220927094534 51 0 0.0 0.0 0.00 0.00 0.00 79 1019.7
20220927093035 51 0 0.0 0.0 0.00 0.00 0.00 78 1019.4
20220927091538 52 0 0.0 0.0 0.00 0.00 0.00 77 1019.3
20220927090035 53 0 0.0 0.0 0.00 0.00 0.00 75 1019.1
20220927084549 53 0 0.0 0.0 0.00 0.00 0.00 74 1019.0
20220927083040 54 0 0.0 0.0 0.00 0.00 0.00 73 1019.0
20220927081538 55 0 0.0 0.0 0.00 0.00 0.00 71 1019.1
20220927080045 55 0 0.0 0.0 0.00 0.00 0.00 71 1019.0
20220927074535 56 0 0.0 0.0 0.00 0.00 0.00 70 1019.0
20220927073045 56 0 0.0 0.0 0.00 0.00 0.00 69 1018.9
20220927071541 56 0 0.0 0.0 0.00 0.00 0.00 68 1019.1
20220927070044 57 0 0.0 0.0 0.00 0.00 0.00 67 1019.0
20220927064540 57 0 0.0 0.0 0.00 0.00 0.00 65 1018.9
20220927063041 58 0 0.0 0.0 0.00 0.00 0.00 62 1018.8
20220927061544 59 0 0.0 0.0 0.00 0.00 0.00 60 1018.8
20220927060047 59 0 0.0 3.0 0.00 0.00 0.00 60 1018.9
20220927054532 59 0 0.0 2.0 0.00 0.00 0.00 58 1019.0
20220927053047 60 346 0.0 3.0 0.00 0.00 0.00 58 1019.0
20220927051543 60 342 0.0 2.0 0.00 0.00 0.00 58 1018.9
20220927050043 61 350 1.0 3.0 0.00 0.00 0.00 56 1018.9
20220927044537 61 0 1.0 4.0 0.00 0.00 0.00 56 1018.9
20220927043036 61 350 0.0 4.0 0.00 0.00 0.00 56 1018.8
20220927041600 61 0 0.0 4.0 0.00 0.00 0.00 56 1018.7
20220927040053 60 0 0.0 3.0 0.00 0.00 0.00 56 1018.6
20220927034539 60 0 0.0 1.0 0.00 0.00 0.00 57 1018.4
20220927033050 60 0 0.0 0.0 0.00 0.00 0.00 58 1018.3
20220927031538 60 0 0.0 0.0 0.00 0.00 0.00 57 1018.3
20220927030036 60 0 0.0 0.0 0.00 0.00 0.00 57 1018.4
20220927024540 61 0 0.0 0.0 0.00 0.00 0.00 57 1018.4
20220927023035 61 0 0.0 0.0 0.00 0.00 0.00 56 1018.2
20220927021538 62 0 0.0 0.0 0.00 0.00 0.00 55 1018.2
20220927020032 62 0 0.0 0.0 0.00 0.00 0.00 53 1018.1
20220927014602 63 0 0.0 1.0 0.00 0.00 0.00 51 1017.8
20220927013038 63 0 0.0 0.0 0.00 0.00 0.00 51 1017.7
20220927011535 64 0 0.0 0.0 0.00 0.00 0.00 50 1017.6
20220927010037 65 0 0.0 0.0 0.00 0.00 0.00 48 1017.5
20220927004535 66 0 0.0 0.0 0.00 0.00 0.00 47 1017.3
20220927003103 67 0 0.0 0.0 0.00 0.00 0.00 45 1017.0
20220927001540 69 0 0.0 0.0 0.00 0.00 0.00 42 1016.8
20220927000043 70 0 0.0 1.0 0.00 0.00 0.00 39 1016.8
20220926234557 71 0 0.0 1.0 0.00 0.00 0.00 37 1016.6
20220926233036 72 0 0.0 2.0 0.00 0.00 0.00 35 1016.4
20220926231534 73 24 1.0 8.0 0.00 0.00 0.00 33 1016.4
20220926230047 74 0 0.0 3.0 0.00 0.00 0.00 32 1016.5
20220926224536 74 0 1.0 4.0 0.00 0.00 0.00 31 1016.4
20220926223100 75 5 1.0 6.0 0.00 0.00 0.00 30 1016.4
20220926221533 75 336 0.0 9.0 0.00 0.00 0.00 31 1016.3
20220926220034 75 275 1.0 6.0 0.00 0.00 0.00 29 1016.5
20220926214545 76 339 3.0 8.0 0.00 0.00 0.00 29 1016.5
20220926213040 76 163 1.0 7.0 0.00 0.00 0.00 30 1016.6
20220926211537 76 312 2.0 9.0 0.00 0.00 0.00 30 1016.5
20220926210033 77 317 2.0 12.0 0.00 0.00 0.00 29 1016.4
20220926204538 77 344 3.0 12.0 0.00 0.00 0.00 29 1016.5